FAJB

Johannesburg City Airport

Johannesburg, South Africa
METAR FAJB 211200Z AUTO 33002KT //// // ////// 22/08 Q1023
Observed Flight Rules
May-21 @ 12:00 UTC (15 hours ago)
Wind
330° at 2 knots
Temperatures Readings
Current 22°C / 72°F
Dewpoint 8°C / 46°F
Humidity 41%
Altimeter 30.21" Hg
Pressure 1023 hPa
Elevation 1626
METAR FAJB 211200Z AUTO 33002KT //// // ////// 22/08 Q1023
Observed Flight Rules
May-21 @ 12:00 UTC
(15 hours ago)
Wind
330° at 2 knots
Temperature Dewpoint
22°C / 72°F 8°C / 46°F
Humidity Altimeter Pressure
41% 30.21" Hg 1023 hPa